MiSS Donna — WDG2382 — position and weather

sailwx.info

Track history (hours):
 
Tides and Currents Weather Stations Pressure Air Temp Water Temp Dewpoint Dewpoint Depression Visibility Wind Speed Wind Dir Waves Ship Positions

MiSS Donna

Owner: OCEAN MARINE BOAT RENTALS,LLC, MORGAN CITY, LA. More information available from US FCC via Universal Licensing System and Coast Guard Vessel Documentation Center.

Last reported at 2017-Oct-19 04:42 UTC. Time now 2017-Oct-19 07:30 UTC.
Position N 37°59' W 076°13'.

Length 21 m; draft 2.7 m.

Type: Towing. MMSI: 367515090.

Date/timePositionNaut miles runAvg speedWind from/ knotsBaromVisibWave heightAir tempDewpointWater temp
2017-Oct-19 04:42N 37°59' W 076°13'51 7.2
2017-Oct-18 21:36N 38°50' W 076°26'1 6.5
2017-Oct-18 21:30N 38°50' W 076°26'3 6.4
2017-Oct-18 20:59N 38°53' W 076°25'3 6.2
2017-Oct-18 20:30N 38°56' W 076°24'3 6.3
2017-Oct-18 20:00N 38°59' W 076°23'3 5.9
2017-Oct-18 19:30N 39°02' W 076°23'3 6.7
2017-Oct-18 19:00N 39°05' W 076°24'4 7.0
2017-Oct-18 18:30N 39°09' W 076°25'3 6.7
2017-Oct-18 18:00N 39°11' W 076°28'3 7.0
2017-Oct-18 17:30N 39°13' W 076°32'2 4.4
2017-Oct-18 17:00N 39°13' W 076°35'0 0.5
2017-Oct-18 16:30N 39°13' W 076°35'0 0.0
2017-Oct-18 15:56N 39°13' W 076°35'0 0.0
2017-Oct-18 15:30N 39°13' W 076°35'0 0.0
2017-Oct-18 15:00N 39°13' W 076°35'0 0.0
2017-Oct-18 14:00N 39°13' W 076°35'0 0.0
2017-Oct-18 13:30N 39°13' W 076°35'0 0.0
2017-Oct-18 13:00N 39°13' W 076°35'0 0.0
2017-Oct-18 12:30N 39°13' W 076°35'0 0.0
2017-Oct-18 12:00N 39°13' W 076°35'0 0.0
2017-Oct-18 11:30N 39°13' W 076°35'0 0.0
2017-Oct-18 11:00N 39°13' W 076°35'0 0.0
2017-Oct-18 10:30N 39°13' W 076°35'0 0.0
2017-Oct-18 10:00N 39°13' W 076°35'0 0.0
2017-Oct-18 09:30N 39°13' W 076°35'0 0.0
2017-Oct-18 09:00N 39°13' W 076°35'0 0.0
2017-Oct-18 08:30N 39°13' W 076°35'0 0.0
2017-Oct-18 08:00N 39°13' W 076°35'0 0.0
2017-Oct-18 07:30N 39°13' W 076°35'0 0.0
2017-Oct-18 07:00N 39°13' W 076°35'0 0.0
2017-Oct-18 06:30N 39°13' W 076°35'0 0.0
2017-Oct-18 06:00N 39°13' W 076°35'0 0.0
2017-Oct-18 05:30N 39°13' W 076°35'0 0.0
2017-Oct-18 05:00N 39°13' W 076°35'0 0.0
2017-Oct-18 04:30N 39°13' W 076°35'0 0.0
2017-Oct-18 04:00N 39°13' W 076°35'0 0.0
2017-Oct-18 03:30N 39°13' W 076°35'0 0.0
2017-Oct-18 03:00N 39°13' W 076°35'0 0.0
2017-Oct-18 02:30N 39°13' W 076°35'0 0.0
2017-Oct-18 02:00N 39°13' W 076°35'0 0.0
2017-Oct-18 01:30N 39°13' W 076°35'0 0.0
2017-Oct-18 00:45N 39°13' W 076°35'0 0.0
2017-Oct-18 00:30N 39°13' W 076°35'0 0.0
2017-Oct-17 23:44N 39°13' W 076°35'0 0.0
2017-Oct-17 22:29N 39°13' W 076°35'0 0.0
2017-Oct-17 22:00N 39°13' W 076°35'0 0.0
2017-Oct-17 21:30N 39°13' W 076°35'0 0.0
2017-Oct-17 21:00N 39°13' W 076°35'0 0.0
2017-Oct-17 20:30N 39°13' W 076°35'0 0.0
2017-Oct-17 20:00N 39°13' W 076°35'0 0.0
2017-Oct-17 19:30N 39°13' W 076°35'0 0.0
2017-Oct-17 18:59N 39°13' W 076°35'1 1.6
2017-Oct-17 18:30N 39°13' W 076°34'2 4.7
2017-Oct-17 18:00N 39°16' W 076°35'0 0.0
2017-Oct-17 17:30N 39°16' W 076°35'0 0.8
2017-Oct-17 17:00N 39°15' W 076°35'0 0.0
2017-Oct-17 16:30N 39°15' W 076°35'2 4.1
2017-Oct-17 16:00N 39°14' W 076°33'2 3.5
2017-Oct-17 15:30N 39°13' W 076°35'0 0.0
2017-Oct-17 15:00N 39°13' W 076°35'0 0.0
2017-Oct-17 14:30N 39°13' W 076°35'0 0.1
2017-Oct-17 13:47N 39°13' W 076°35'0 0.0
2017-Oct-17 13:17N 39°13' W 076°35'0 0.0
2017-Oct-17 12:59N 39°13' W 076°35'0 0.0
2017-Oct-17 12:27N 39°13' W 076°35'0 0.0
2017-Oct-17 11:51N 39°13' W 076°35'0 0.0
2017-Oct-17 11:30N 39°13' W 076°35'0 0.0
2017-Oct-17 11:00N 39°13' W 076°35'0 0.0
2017-Oct-17 10:23N 39°13' W 076°35'0 0.0
2017-Oct-17 09:43N 39°13' W 076°35'0 0.0
2017-Oct-17 09:22N 39°13' W 076°35'0 0.0
2017-Oct-16 14:40N 39°13' W 076°35'0 0.0
2017-Oct-16 14:24N 39°13' W 076°35'0 0.0
2017-Oct-16 13:09N 39°13' W 076°35'0 0.0
2017-Oct-16 13:00N 39°13' W 076°35'0 0.1
2017-Oct-16 12:28N 39°13' W 076°35'0 0.0
2017-Oct-16 12:00N 39°13' W 076°35'0 0.0
2017-Oct-16 04:51N 39°13' W 076°35'0 0.0
2017-Oct-16 04:19N 39°13' W 076°35'0 0.0
2017-Oct-16 01:45N 39°13' W 076°35'0 0.0
2017-Oct-16 01:30N 39°13' W 076°35'0 0.0
2017-Oct-16 01:00N 39°13' W 076°35'0 0.0
2017-Oct-16 00:30N 39°13' W 076°35'0 0.0
2017-Oct-15 22:33N 39°13' W 076°35'0 0.0
2017-Oct-15 15:20N 39°13' W 076°35'0 0.0
2017-Oct-15 14:57N 39°13' W 076°35'0 0.0
2017-Oct-15 13:49N 39°13' W 076°35'0 0.0
2017-Oct-15 13:22N 39°13' W 076°35'0 0.0
2017-Oct-15 12:37N 39°13' W 076°35'0 0.0
2017-Oct-15 12:16N 39°13' W 076°35'0 0.0
2017-Oct-15 11:59N 39°13' W 076°35'0 0.0
2017-Oct-15 11:29N 39°13' W 076°35'0 0.0
2017-Oct-15 10:58N 39°13' W 076°35'0 0.0
2017-Oct-15 10:28N 39°13' W 076°35'0 0.0
2017-Oct-15 09:58N 39°13' W 076°35'0 0.0
2017-Oct-15 09:29N 39°13' W 076°35'0 0.0
2017-Oct-15 08:56N 39°13' W 076°35'0 0.0
2017-Oct-15 08:25N 39°13' W 076°35'0 0.0
2017-Oct-15 07:49N 39°13' W 076°35'0 0.0
2017-Oct-15 07:20N 39°13' W 076°35'0 0.0
2017-Oct-15 06:56N 39°13' W 076°35'0 0.0
2017-Oct-15 06:30N 39°13' W 076°35'0 0.0
2017-Oct-15 05:58N 39°13' W 076°35'0 0.0
2017-Oct-15 05:30N 39°13' W 076°35'0 0.0
2017-Oct-15 05:00N 39°13' W 076°35'0 0.0
2017-Oct-15 04:30N 39°13' W 076°35'0 0.0
2017-Oct-15 04:00N 39°13' W 076°35'0 0.0
2017-Oct-15 03:31N 39°13' W 076°35'0 0.0
2017-Oct-15 03:00N 39°13' W 076°35'0 0.0
2017-Oct-15 02:30N 39°13' W 076°35'0 0.0
2017-Oct-15 02:00N 39°13' W 076°35'0 0.0
2017-Oct-15 01:30N 39°13' W 076°35'0 0.0
2017-Oct-15 01:00N 39°13' W 076°35'0 0.0
2017-Oct-15 00:30N 39°13' W 076°35'0 0.0
2017-Oct-14 23:52N 39°13' W 076°35'0 0.0
2017-Oct-14 23:30N 39°13' W 076°35'0 0.0
2017-Oct-14 23:00N 39°13' W 076°35'0 0.0
2017-Oct-14 22:30N 39°13' W 076°35'0 0.0
2017-Oct-14 22:00N 39°13' W 076°35'0 0.0
2017-Oct-14 21:30N 39°13' W 076°35'0 0.0
2017-Oct-14 21:00N 39°13' W 076°35'0 0.0
2017-Oct-14 20:29N 39°13' W 076°35'0 0.0
2017-Oct-14 19:59N 39°13' W 076°35'0 0.0
2017-Oct-14 19:29N 39°13' W 076°35'0 0.0
2017-Oct-14 19:00N 39°13' W 076°35'0 0.0
2017-Oct-14 18:30N 39°13' W 076°35'0 0.0
2017-Oct-14 18:00N 39°13' W 076°35'0 0.0
2017-Oct-14 17:30N 39°13' W 076°35'0 0.0
2017-Oct-14 17:00N 39°13' W 076°35'0 0.0
2017-Oct-14 16:30N 39°13' W 076°35'0 0.0
2017-Oct-14 16:00N 39°13' W 076°35'0 0.0
2017-Oct-14 15:30N 39°13' W 076°35'0 0.0
2017-Oct-14 15:00N 39°13' W 076°35'0 0.0
2017-Oct-14 14:30N 39°13' W 076°35'0 0.0
2017-Oct-14 14:00N 39°13' W 076°35'0 0.0
2017-Oct-14 13:27N 39°13' W 076°35'0 0.0
2017-Oct-14 12:59N 39°13' W 076°35'0 0.0
2017-Oct-14 09:54N 39°13' W 076°35'0 0.0
2017-Oct-14 09:30N 39°13' W 076°35'0 0.0
2017-Oct-13 21:38N 39°13' W 076°35'0 0.0
2017-Oct-13 21:18N 39°13' W 076°35'0 0.0
2017-Oct-13 21:00N 39°13' W 076°35'0 0.0
2017-Oct-13 20:29N 39°13' W 076°35'0 0.0
2017-Oct-13 20:00N 39°13' W 076°35'0 0.0
2017-Oct-13 19:29N 39°13' W 076°35'0 0.0
2017-Oct-13 18:59N 39°13' W 076°35'0 0.0
2017-Oct-13 18:30N 39°13' W 076°35'0 0.0
2017-Oct-13 17:59N 39°13' W 076°35'0 0.0
2017-Oct-13 17:30N 39°13' W 076°35'0 0.0
2017-Oct-13 16:49N 39°13' W 076°35'0 0.0
2017-Oct-13 16:30N 39°13' W 076°35'0 0.1
2017-Oct-13 16:00N 39°13' W 076°35'0 0.5
2017-Oct-13 15:30N 39°13' W 076°35'0 0.0
2017-Oct-13 15:00N 39°13' W 076°35'0 0.0
2017-Oct-13 14:30N 39°13' W 076°35'0 0.0
2017-Oct-13 14:00N 39°13' W 076°35'1 1.9
2017-Oct-13 13:30N 39°14' W 076°34'0 0.0
2017-Oct-13 13:00N 39°14' W 076°34'0 0.0
2017-Oct-13 12:30N 39°14' W 076°34'0 0.0
2017-Oct-13 12:00N 39°14' W 076°34'1 2.0
2017-Oct-13 11:29N 39°13' W 076°35'0 0.0
2017-Oct-13 10:58N 39°13' W 076°35'0 0.0
2017-Oct-13 10:30N 39°13' W 076°35'0 0.0
2017-Oct-13 10:00N 39°13' W 076°35'0 0.0
2017-Oct-13 09:30N 39°13' W 076°35'0 0.0
2017-Oct-13 09:00N 39°13' W 076°35'0 0.0
2017-Oct-13 08:30N 39°13' W 076°35'0 0.0
2017-Oct-13 08:00N 39°13' W 076°35'0 0.0
2017-Oct-13 07:30N 39°13' W 076°35'0 0.0
2017-Oct-13 06:59N 39°13' W 076°35'0 0.0
2017-Oct-13 06:30N 39°13' W 076°35'0 0.0
2017-Oct-13 06:00N 39°13' W 076°35'0 0.0
2017-Oct-13 05:30N 39°13' W 076°35'0 0.0
2017-Oct-13 04:59N 39°13' W 076°35'0 0.0
2017-Oct-13 04:30N 39°13' W 076°35'0 0.0
2017-Oct-13 03:59N 39°13' W 076°35'0 0.0
2017-Oct-13 02:39N 39°13' W 076°35'0 0.0
2017-Oct-13 02:30N 39°13' W 076°35'0 0.0
2017-Oct-13 01:58N 39°13' W 076°35'0 0.0
2017-Oct-13 01:27N 39°13' W 076°35'0 0.0
2017-Oct-13 00:59N 39°13' W 076°35'0 0.0
2017-Oct-13 00:30N 39°13' W 076°35'0 0.0
2017-Oct-12 23:59N 39°13' W 076°35'0 0.0
2017-Oct-12 19:11N 39°13' W 076°35'0 0.0
2017-Oct-12 19:00N 39°13' W 076°35'0 0.0
2017-Oct-12 18:20N 39°13' W 076°35'0 0.0
2017-Oct-12 17:51N 39°13' W 076°35'0 0.0
2017-Oct-12 16:33N 39°13' W 076°35'0 0.0
2017-Oct-12 16:05N 39°13' W 076°35'0 0.0
2017-Oct-12 14:40N 39°13' W 076°35'0 0.0
2017-Oct-12 14:24N 39°13' W 076°35'0 0.0
2017-Oct-12 14:00N 39°13' W 076°35'0 0.0
2017-Oct-12 13:29N 39°13' W 076°35'0 0.0
2017-Oct-12 13:00N 39°13' W 076°35'0 0.0
2017-Oct-12 12:29N 39°13' W 076°35'0 0.0
2017-Oct-12 12:00N 39°13' W 076°35'0 0.0
2017-Oct-12 11:30N 39°13' W 076°35'0 0.0
2017-Oct-12 11:00N 39°13' W 076°35'0 0.0
2017-Oct-12 10:30N 39°13' W 076°35'0 0.0
2017-Oct-12 10:00N 39°13' W 076°35'0 0.0
2017-Oct-12 09:30N 39°13' W 076°35'0 0.0
2017-Oct-12 09:00N 39°13' W 076°35'0 0.0
2017-Oct-12 08:26N 39°13' W 076°35'0 0.0
2017-Oct-12 07:59N 39°13' W 076°35'0 0.0
2017-Oct-12 07:29N 39°13' W 076°35'0 0.0
2017-Oct-12 06:57N 39°13' W 076°35'0 0.0
2017-Oct-12 06:28N 39°13' W 076°35'0 0.0
2017-Oct-12 05:58N 39°13' W 076°35'0 0.0
2017-Oct-12 05:29N 39°13' W 076°35'0 0.0
2017-Oct-12 05:00N 39°13' W 076°35'0 0.0
2017-Oct-12 04:30N 39°13' W 076°35'0 0.0
2017-Oct-12 04:00N 39°13' W 076°35'0 0.0
2017-Oct-12 03:30N 39°13' W 076°35'0 0.0
2017-Oct-12 03:00N 39°13' W 076°35'0 0.0
2017-Oct-12 02:30N 39°13' W 076°35'0 0.0
2017-Oct-12 02:00N 39°13' W 076°35'0 0.0
2017-Oct-12 01:30N 39°13' W 076°35'0 0.0
2017-Oct-12 01:00N 39°13' W 076°35'0 0.0
2017-Oct-12 00:28N 39°13' W 076°35'0 0.0
2017-Oct-11 23:56N 39°13' W 076°35'0 0.0
2017-Oct-11 22:39N 39°13' W 076°35'0 0.0
2017-Oct-11 22:30N 39°13' W 076°35'0 0.0
2017-Oct-11 22:00N 39°13' W 076°35'0 0.0
2017-Oct-11 21:30N 39°13' W 076°35'0 0.0
2017-Oct-11 21:00N 39°13' W 076°35'0 0.0
2017-Oct-11 20:30N 39°13' W 076°35'0 0.0
2017-Oct-11 20:00N 39°13' W 076°35'0 0.0
2017-Oct-11 19:30N 39°13' W 076°35'0 0.0
2017-Oct-11 19:00N 39°13' W 076°35'0 0.0
2017-Oct-11 18:30N 39°13' W 076°35'0 0.0
2017-Oct-11 18:00N 39°13' W 076°35'0 0.0
2017-Oct-11 17:30N 39°13' W 076°35'0 0.0
2017-Oct-11 17:00N 39°13' W 076°35'0 0.0
2017-Oct-11 00:00N 39°13' W 076°35'0 0.0
2017-Oct-10 23:30N 39°13' W 076°35'0 0.0
2017-Oct-10 23:00N 39°13' W 076°35'0 0.0
2017-Oct-10 22:30N 39°13' W 076°35'0 0.0
2017-Oct-10 22:00N 39°13' W 076°35'0 0.0
2017-Oct-10 21:30N 39°13' W 076°35'0 0.0
2017-Oct-10 21:00N 39°13' W 076°35'0 0.0
2017-Oct-10 20:30N 39°13' W 076°35'0 0.0
2017-Oct-10 20:00N 39°13' W 076°35'0 0.0
2017-Oct-10 19:30N 39°13' W 076°35'0 0.0
2017-Oct-10 19:00N 39°13' W 076°35'0 0.0
2017-Oct-10 18:30N 39°13' W 076°35'0 0.0
2017-Oct-10 18:00N 39°13' W 076°35'0 0.0
2017-Oct-10 17:30N 39°13' W 076°35'0 0.2
2017-Oct-10 17:00N 39°13' W 076°35'2 3.5
2017-Oct-10 16:30N 39°13' W 076°33'2 4.8
2017-Oct-10 16:00N 39°12' W 076°30'2 4.8
2017-Oct-10 15:30N 39°11' W 076°27'2 4.8
2017-Oct-10 15:00N 39°09' W 076°25'5 4.6
2017-Oct-10 14:00N 39°05' W 076°23'2 5.0
2017-Oct-10 13:30N 39°02' W 076°23'3 5.3
2017-Oct-10 13:00N 38°60' W 076°23'3 6.6
2017-Oct-10 12:30N 38°58' W 076°26'3 5.1
2017-Oct-10 12:00N 38°59' W 076°29'0 0.1
2017-Oct-10 11:30N 38°59' W 076°29'0 0.1
2017-Oct-10 11:00N 38°59' W 076°29'0 0.0
2017-Oct-10 10:30N 38°59' W 076°29'0 0.0
2017-Oct-10 10:00N 38°59' W 076°29'0 0.0
2017-Oct-10 09:30N 38°59' W 076°29'0 0.0
2017-Oct-10 09:00N 38°59' W 076°29'0 0.0
2017-Oct-10 08:30N 38°59' W 076°29'2 4.5
2017-Oct-10 08:00N 38°58' W 076°27'3 6.8
2017-Oct-10 07:30N 38°59' W 076°23'4 7.9
2017-Oct-10 07:00N 39°03' W 076°23'4 7.8
2017-Oct-10 06:30N 39°07' W 076°24'4 7.3
2017-Oct-10 06:00N 39°10' W 076°26'3 6.9
2017-Oct-10 05:31N 39°12' W 076°30'3 6.4
2017-Oct-10 05:00N 39°13' W 076°34'1 2.0
2017-Oct-10 04:30N 39°13' W 076°35'0 0.0
2017-Oct-10 04:00N 39°13' W 076°35'0 0.0
2017-Oct-10 03:30N 39°13' W 076°35'0 0.0
2017-Oct-10 02:59N 39°13' W 076°35'0 0.0
2017-Oct-10 02:29N 39°13' W 076°35'0 0.0
2017-Oct-10 02:00N 39°13' W 076°35'0 0.0
2017-Oct-10 01:29N 39°13' W 076°35'0 0.0
2017-Oct-10 01:00N 39°13' W 076°35'0 0.0
2017-Oct-10 00:30N 39°13' W 076°35'0 0.0
2017-Oct-09 23:59N 39°13' W 076°35'0 0.0
2017-Oct-09 23:29N 39°13' W 076°35'0 0.0
2017-Oct-09 23:00N 39°13' W 076°35'0 0.0
2017-Oct-09 22:29N 39°13' W 076°35'0 0.0
2017-Oct-09 21:58N 39°13' W 076°35'0 0.0
2017-Oct-09 21:29N 39°13' W 076°35'0 0.0
2017-Oct-09 21:00N 39°13' W 076°35'0 0.0
2017-Oct-09 20:30N 39°13' W 076°35'0 0.0
2017-Oct-09 20:00N 39°13' W 076°35'0 0.0
2017-Oct-09 19:30N 39°13' W 076°35'0 0.0
2017-Oct-09 19:00N 39°13' W 076°35'0 0.0
2017-Oct-09 18:19N 39°13' W 076°35'0 0.1
2017-Oct-09 16:58N 39°13' W 076°35'0 0.1
2017-Oct-09 15:19N 39°13' W 076°35'0 0.8
2017-Oct-09 14:58N 39°13' W 076°35'0 0.4
2017-Oct-09 14:29N 39°13' W 076°35'0 0.0
2017-Oct-09 13:56N 39°13' W 076°35'0 0.5
2017-Oct-09 13:29N 39°13' W 076°35'0 0.1
2017-Oct-09 13:00N 39°13' W 076°34'0 0.1
2017-Oct-09 12:30N 39°13' W 076°35'0 0.6
2017-Oct-09 12:00N 39°13' W 076°35'0 0.0
2017-Oct-09 09:42N 39°13' W 076°35'0 0.0
2017-Oct-09 09:30N 39°13' W 076°35'0 0.0
2017-Oct-09 09:00N 39°13' W 076°35'0 0.0
2017-Oct-09 08:29N 39°13' W 076°35'0 0.0
2017-Oct-09 08:00N 39°13' W 076°35'0 0.0
2017-Oct-09 07:29N 39°13' W 076°35'0 0.0
2017-Oct-09 06:59N 39°13' W 076°35'0 0.0
2017-Oct-09 06:30N 39°13' W 076°35'0 0.0
2017-Oct-09 05:43N 39°13' W 076°35'0 0.0
2017-Oct-09 05:15N 39°13' W 076°35'  
Track history (hours):
 
Tides and Currents Weather Stations Pressure Air Temp Water Temp Dewpoint Dewpoint Depression Visibility Wind Speed Wind Dir Waves Ship Positions

MiSS Donna

Owner: OCEAN MARINE BOAT RENTALS,LLC, MORGAN CITY, LA. More information available from US FCC via Universal Licensing System and Coast Guard Vessel Documentation Center.

Last reported at 2017-Oct-19 04:42 UTC. Time now 2017-Oct-19 07:30 UTC.
Position N 37°59' W 076°13'.

Length 21 m; draft 2.7 m.

Type: Towing. MMSI: 367515090.

Date/timePositionNaut miles runAvg speedWind from/ knotsBaromVisibWave heightAir tempDewpointWater temp
2017-Oct-19 04:42N 37°59' W 076°13'51 7.2
2017-Oct-18 21:36N 38°50' W 076°26'1 6.5
2017-Oct-18 21:30N 38°50' W 076°26'3 6.4
2017-Oct-18 20:59N 38°53' W 076°25'3 6.2
2017-Oct-18 20:30N 38°56' W 076°24'3 6.3
2017-Oct-18 20:00N 38°59' W 076°23'3 5.9
2017-Oct-18 19:30N 39°02' W 076°23'3 6.7
2017-Oct-18 19:00N 39°05' W 076°24'4 7.0
2017-Oct-18 18:30N 39°09' W 076°25'3 6.7
2017-Oct-18 18:00N 39°11' W 076°28'3 7.0
2017-Oct-18 17:30N 39°13' W 076°32'2 4.4
2017-Oct-18 17:00N 39°13' W 076°35'0 0.5
2017-Oct-18 16:30N 39°13' W 076°35'0 0.0
2017-Oct-18 15:56N 39°13' W 076°35'0 0.0
2017-Oct-18 15:30N 39°13' W 076°35'0 0.0
2017-Oct-18 15:00N 39°13' W 076°35'0 0.0
2017-Oct-18 14:00N 39°13' W 076°35'0 0.0
2017-Oct-18 13:30N 39°13' W 076°35'0 0.0
2017-Oct-18 13:00N 39°13' W 076°35'0 0.0
2017-Oct-18 12:30N 39°13' W 076°35'0 0.0
2017-Oct-18 12:00N 39°13' W 076°35'0 0.0
2017-Oct-18 11:30N 39°13' W 076°35'0 0.0
2017-Oct-18 11:00N 39°13' W 076°35'0 0.0
2017-Oct-18 10:30N 39°13' W 076°35'0 0.0
2017-Oct-18 10:00N 39°13' W 076°35'0 0.0
2017-Oct-18 09:30N 39°13' W 076°35'0 0.0
2017-Oct-18 09:00N 39°13' W 076°35'0 0.0
2017-Oct-18 08:30N 39°13' W 076°35'0 0.0
2017-Oct-18 08:00N 39°13' W 076°35'0 0.0
2017-Oct-18 07:30N 39°13' W 076°35'0 0.0
2017-Oct-18 07:00N 39°13' W 076°35'0 0.0
2017-Oct-18 06:30N 39°13' W 076°35'0 0.0
2017-Oct-18 06:00N 39°13' W 076°35'0 0.0
2017-Oct-18 05:30N 39°13' W 076°35'0 0.0
2017-Oct-18 05:00N 39°13' W 076°35'0 0.0
2017-Oct-18 04:30N 39°13' W 076°35'0 0.0
2017-Oct-18 04:00N 39°13' W 076°35'0 0.0
2017-Oct-18 03:30N 39°13' W 076°35'0 0.0
2017-Oct-18 03:00N 39°13' W 076°35'0 0.0
2017-Oct-18 02:30N 39°13' W 076°35'0 0.0
2017-Oct-18 02:00N 39°13' W 076°35'0 0.0
2017-Oct-18 01:30N 39°13' W 076°35'0 0.0
2017-Oct-18 00:45N 39°13' W 076°35'0 0.0
2017-Oct-18 00:30N 39°13' W 076°35'0 0.0
2017-Oct-17 23:44N 39°13' W 076°35'0 0.0
2017-Oct-17 22:29N 39°13' W 076°35'0 0.0
2017-Oct-17 22:00N 39°13' W 076°35'0 0.0
2017-Oct-17 21:30N 39°13' W 076°35'0 0.0
2017-Oct-17 21:00N 39°13' W 076°35'0 0.0
2017-Oct-17 20:30N 39°13' W 076°35'0 0.0
2017-Oct-17 20:00N 39°13' W 076°35'0 0.0
2017-Oct-17 19:30N 39°13' W 076°35'0 0.0
2017-Oct-17 18:59N 39°13' W 076°35'1 1.6
2017-Oct-17 18:30N 39°13' W 076°34'2 4.7
2017-Oct-17 18:00N 39°16' W 076°35'0 0.0
2017-Oct-17 17:30N 39°16' W 076°35'0 0.8
2017-Oct-17 17:00N 39°15' W 076°35'0 0.0
2017-Oct-17 16:30N 39°15' W 076°35'2 4.1
2017-Oct-17 16:00N 39°14' W 076°33'2 3.5
2017-Oct-17 15:30N 39°13' W 076°35'0 0.0
2017-Oct-17 15:00N 39°13' W 076°35'0 0.0
2017-Oct-17 14:30N 39°13' W 076°35'0 0.1
2017-Oct-17 13:47N 39°13' W 076°35'0 0.0
2017-Oct-17 13:17N 39°13' W 076°35'0 0.0
2017-Oct-17 12:59N 39°13' W 076°35'0 0.0
2017-Oct-17 12:27N 39°13' W 076°35'0 0.0
2017-Oct-17 11:51N 39°13' W 076°35'0 0.0
2017-Oct-17 11:30N 39°13' W 076°35'0 0.0
2017-Oct-17 11:00N 39°13' W 076°35'0 0.0
2017-Oct-17 10:23N 39°13' W 076°35'0 0.0
2017-Oct-17 09:43N 39°13' W 076°35'0 0.0
2017-Oct-17 09:22N 39°13' W 076°35'0 0.0
2017-Oct-16 14:40N 39°13' W 076°35'0 0.0
2017-Oct-16 14:24N 39°13' W 076°35'0 0.0
2017-Oct-16 13:09N 39°13' W 076°35'0 0.0
2017-Oct-16 13:00N 39°13' W 076°35'0 0.1
2017-Oct-16 12:28N 39°13' W 076°35'0 0.0
2017-Oct-16 12:00N 39°13' W 076°35'0 0.0
2017-Oct-16 04:51N 39°13' W 076°35'0 0.0
2017-Oct-16 04:19N 39°13' W 076°35'0 0.0
2017-Oct-16 01:45N 39°13' W 076°35'0 0.0
2017-Oct-16 01:30N 39°13' W 076°35'0 0.0
2017-Oct-16 01:00N 39°13' W 076°35'0 0.0
2017-Oct-16 00:30N 39°13' W 076°35'0 0.0
2017-Oct-15 22:33N 39°13' W 076°35'0 0.0
2017-Oct-15 15:20N 39°13' W 076°35'0 0.0
2017-Oct-15 14:57N 39°13' W 076°35'0 0.0
2017-Oct-15 13:49N 39°13' W 076°35'0 0.0
2017-Oct-15 13:22N 39°13' W 076°35'0 0.0
2017-Oct-15 12:37N 39°13' W 076°35'0 0.0
2017-Oct-15 12:16N 39°13' W 076°35'0 0.0
2017-Oct-15 11:59N 39°13' W 076°35'0 0.0
2017-Oct-15 11:29N 39°13' W 076°35'0 0.0
2017-Oct-15 10:58N 39°13' W 076°35'0 0.0
2017-Oct-15 10:28N 39°13' W 076°35'0 0.0
2017-Oct-15 09:58N 39°13' W 076°35'0 0.0
2017-Oct-15 09:29N 39°13' W 076°35'0 0.0
2017-Oct-15 08:56N 39°13' W 076°35'0 0.0
2017-Oct-15 08:25N 39°13' W 076°35'0 0.0
2017-Oct-15 07:49N 39°13' W 076°35'0 0.0
2017-Oct-15 07:20N 39°13' W 076°35'0 0.0
2017-Oct-15 06:56N 39°13' W 076°35'0 0.0
2017-Oct-15 06:30N 39°13' W 076°35'0 0.0
2017-Oct-15 05:58N 39°13' W 076°35'0 0.0
2017-Oct-15 05:30N 39°13' W 076°35'0 0.0
2017-Oct-15 05:00N 39°13' W 076°35'0 0.0
2017-Oct-15 04:30N 39°13' W 076°35'0 0.0
2017-Oct-15 04:00N 39°13' W 076°35'0 0.0
2017-Oct-15 03:31N 39°13' W 076°35'0 0.0
2017-Oct-15 03:00N 39°13' W 076°35'0 0.0
2017-Oct-15 02:30N 39°13' W 076°35'0 0.0
2017-Oct-15 02:00N 39°13' W 076°35'0 0.0
2017-Oct-15 01:30N 39°13' W 076°35'0 0.0
2017-Oct-15 01:00N 39°13' W 076°35'0 0.0
2017-Oct-15 00:30N 39°13' W 076°35'0 0.0
2017-Oct-14 23:52N 39°13' W 076°35'0 0.0
2017-Oct-14 23:30N 39°13' W 076°35'0 0.0
2017-Oct-14 23:00N 39°13' W 076°35'0 0.0
2017-Oct-14 22:30N 39°13' W 076°35'0 0.0
2017-Oct-14 22:00N 39°13' W 076°35'0 0.0
2017-Oct-14 21:30N 39°13' W 076°35'0 0.0
2017-Oct-14 21:00N 39°13' W 076°35'0 0.0
2017-Oct-14 20:29N 39°13' W 076°35'0 0.0
2017-Oct-14 19:59N 39°13' W 076°35'0 0.0
2017-Oct-14 19:29N 39°13' W 076°35'0 0.0
2017-Oct-14 19:00N 39°13' W 076°35'0 0.0
2017-Oct-14 18:30N 39°13' W 076°35'0 0.0
2017-Oct-14 18:00N 39°13' W 076°35'0 0.0
2017-Oct-14 17:30N 39°13' W 076°35'0 0.0
2017-Oct-14 17:00N 39°13' W 076°35'0 0.0
2017-Oct-14 16:30N 39°13' W 076°35'0 0.0
2017-Oct-14 16:00N 39°13' W 076°35'0 0.0
2017-Oct-14 15:30N 39°13' W 076°35'0 0.0
2017-Oct-14 15:00N 39°13' W 076°35'0 0.0
2017-Oct-14 14:30N 39°13' W 076°35'0 0.0
2017-Oct-14 14:00N 39°13' W 076°35'0 0.0
2017-Oct-14 13:27N 39°13' W 076°35'0 0.0
2017-Oct-14 12:59N 39°13' W 076°35'0 0.0
2017-Oct-14 09:54N 39°13' W 076°35'0 0.0
2017-Oct-14 09:30N 39°13' W 076°35'0 0.0
2017-Oct-13 21:38N 39°13' W 076°35'0 0.0
2017-Oct-13 21:18N 39°13' W 076°35'0 0.0
2017-Oct-13 21:00N 39°13' W 076°35'0 0.0
2017-Oct-13 20:29N 39°13' W 076°35'0 0.0
2017-Oct-13 20:00N 39°13' W 076°35'0 0.0
2017-Oct-13 19:29N 39°13' W 076°35'0 0.0
2017-Oct-13 18:59N 39°13' W 076°35'0 0.0
2017-Oct-13 18:30N 39°13' W 076°35'0 0.0
2017-Oct-13 17:59N 39°13' W 076°35'0 0.0
2017-Oct-13 17:30N 39°13' W 076°35'0 0.0
2017-Oct-13 16:49N 39°13' W 076°35'0 0.0
2017-Oct-13 16:30N 39°13' W 076°35'0 0.1
2017-Oct-13 16:00N 39°13' W 076°35'0 0.5
2017-Oct-13 15:30N 39°13' W 076°35'0 0.0
2017-Oct-13 15:00N 39°13' W 076°35'0 0.0
2017-Oct-13 14:30N 39°13' W 076°35'0 0.0
2017-Oct-13 14:00N 39°13' W 076°35'1 1.9
2017-Oct-13 13:30N 39°14' W 076°34'0 0.0
2017-Oct-13 13:00N 39°14' W 076°34'0 0.0
2017-Oct-13 12:30N 39°14' W 076°34'0 0.0
2017-Oct-13 12:00N 39°14' W 076°34'1 2.0
2017-Oct-13 11:29N 39°13' W 076°35'0 0.0
2017-Oct-13 10:58N 39°13' W 076°35'0 0.0
2017-Oct-13 10:30N 39°13' W 076°35'0 0.0
2017-Oct-13 10:00N 39°13' W 076°35'0 0.0
2017-Oct-13 09:30N 39°13' W 076°35'0 0.0
2017-Oct-13 09:00N 39°13' W 076°35'0 0.0
2017-Oct-13 08:30N 39°13' W 076°35'0 0.0
2017-Oct-13 08:00N 39°13' W 076°35'0 0.0
2017-Oct-13 07:30N 39°13' W 076°35'0 0.0
2017-Oct-13 06:59N 39°13' W 076°35'0 0.0
2017-Oct-13 06:30N 39°13' W 076°35'0 0.0
2017-Oct-13 06:00N 39°13' W 076°35'0 0.0
2017-Oct-13 05:30N 39°13' W 076°35'0 0.0
2017-Oct-13 04:59N 39°13' W 076°35'0 0.0
2017-Oct-13 04:30N 39°13' W 076°35'0 0.0
2017-Oct-13 03:59N 39°13' W 076°35'0 0.0
2017-Oct-13 02:39N 39°13' W 076°35'0 0.0
2017-Oct-13 02:30N 39°13' W 076°35'0 0.0
2017-Oct-13 01:58N 39°13' W 076°35'0 0.0
2017-Oct-13 01:27N 39°13' W 076°35'0 0.0
2017-Oct-13 00:59N 39°13' W 076°35'0 0.0
2017-Oct-13 00:30N 39°13' W 076°35'0 0.0
2017-Oct-12 23:59N 39°13' W 076°35'0 0.0
2017-Oct-12 19:11N 39°13' W 076°35'0 0.0
2017-Oct-12 19:00N 39°13' W 076°35'0 0.0
2017-Oct-12 18:20N 39°13' W 076°35'0 0.0
2017-Oct-12 17:51N 39°13' W 076°35'0 0.0
2017-Oct-12 16:33N 39°13' W 076°35'0 0.0
2017-Oct-12 16:05N 39°13' W 076°35'0 0.0
2017-Oct-12 14:40N 39°13' W 076°35'0 0.0
2017-Oct-12 14:24N 39°13' W 076°35'0 0.0
2017-Oct-12 14:00N 39°13' W 076°35'0 0.0
2017-Oct-12 13:29N 39°13' W 076°35'0 0.0
2017-Oct-12 13:00N 39°13' W 076°35'0 0.0
2017-Oct-12 12:29N 39°13' W 076°35'0 0.0
2017-Oct-12 12:00N 39°13' W 076°35'0 0.0
2017-Oct-12 11:30N 39°13' W 076°35'0 0.0
2017-Oct-12 11:00N 39°13' W 076°35'0 0.0
2017-Oct-12 10:30N 39°13' W 076°35'0 0.0
2017-Oct-12 10:00N 39°13' W 076°35'0 0.0
2017-Oct-12 09:30N 39°13' W 076°35'0 0.0
2017-Oct-12 09:00N 39°13' W 076°35'0 0.0
2017-Oct-12 08:26N 39°13' W 076°35'0 0.0
2017-Oct-12 07:59N 39°13' W 076°35'0 0.0
2017-Oct-12 07:29N 39°13' W 076°35'0 0.0
2017-Oct-12 06:57N 39°13' W 076°35'0 0.0
2017-Oct-12 06:28N 39°13' W 076°35'0 0.0
2017-Oct-12 05:58N 39°13' W 076°35'0 0.0
2017-Oct-12 05:29N 39°13' W 076°35'0 0.0
2017-Oct-12 05:00N 39°13' W 076°35'0 0.0
2017-Oct-12 04:30N 39°13' W 076°35'0 0.0
2017-Oct-12 04:00N 39°13' W 076°35'0 0.0
2017-Oct-12 03:30N 39°13' W 076°35'0 0.0
2017-Oct-12 03:00N 39°13' W 076°35'0 0.0
2017-Oct-12 02:30N 39°13' W 076°35'0 0.0
2017-Oct-12 02:00N 39°13' W 076°35'0 0.0
2017-Oct-12 01:30N 39°13' W 076°35'0 0.0
2017-Oct-12 01:00N 39°13' W 076°35'0 0.0
2017-Oct-12 00:28N 39°13' W 076°35'0 0.0
2017-Oct-11 23:56N 39°13' W 076°35'0 0.0
2017-Oct-11 22:39N 39°13' W 076°35'0 0.0
2017-Oct-11 22:30N 39°13' W 076°35'0 0.0
2017-Oct-11 22:00N 39°13' W 076°35'0 0.0
2017-Oct-11 21:30N 39°13' W 076°35'0 0.0
2017-Oct-11 21:00N 39°13' W 076°35'0 0.0
2017-Oct-11 20:30N 39°13' W 076°35'0 0.0
2017-Oct-11 20:00N 39°13' W 076°35'0 0.0
2017-Oct-11 19:30N 39°13' W 076°35'0 0.0
2017-Oct-11 19:00N 39°13' W 076°35'0 0.0
2017-Oct-11 18:30N 39°13' W 076°35'0 0.0
2017-Oct-11 18:00N 39°13' W 076°35'0 0.0
2017-Oct-11 17:30N 39°13' W 076°35'0 0.0
2017-Oct-11 17:00N 39°13' W 076°35'0 0.0
2017-Oct-11 00:00N 39°13' W 076°35'0 0.0
2017-Oct-10 23:30N 39°13' W 076°35'0 0.0
2017-Oct-10 23:00N 39°13' W 076°35'0 0.0
2017-Oct-10 22:30N 39°13' W 076°35'0 0.0
2017-Oct-10 22:00N 39°13' W 076°35'0 0.0
2017-Oct-10 21:30N 39°13' W 076°35'0 0.0
2017-Oct-10 21:00N 39°13' W 076°35'0 0.0
2017-Oct-10 20:30N 39°13' W 076°35'0 0.0
2017-Oct-10 20:00N 39°13' W 076°35'0 0.0
2017-Oct-10 19:30N 39°13' W 076°35'0 0.0
2017-Oct-10 19:00N 39°13' W 076°35'0 0.0
2017-Oct-10 18:30N 39°13' W 076°35'0 0.0
2017-Oct-10 18:00N 39°13' W 076°35'0 0.0
2017-Oct-10 17:30N 39°13' W 076°35'0 0.2
2017-Oct-10 17:00N 39°13' W 076°35'2 3.5
2017-Oct-10 16:30N 39°13' W 076°33'2 4.8
2017-Oct-10 16:00N 39°12' W 076°30'2 4.8
2017-Oct-10 15:30N 39°11' W 076°27'2 4.8
2017-Oct-10 15:00N 39°09' W 076°25'5 4.6
2017-Oct-10 14:00N 39°05' W 076°23'2 5.0
2017-Oct-10 13:30N 39°02' W 076°23'3 5.3
2017-Oct-10 13:00N 38°60' W 076°23'3 6.6
2017-Oct-10 12:30N 38°58' W 076°26'3 5.1
2017-Oct-10 12:00N 38°59' W 076°29'0 0.1
2017-Oct-10 11:30N 38°59' W 076°29'0 0.1
2017-Oct-10 11:00N 38°59' W 076°29'0 0.0
2017-Oct-10 10:30N 38°59' W 076°29'0 0.0
2017-Oct-10 10:00N 38°59' W 076°29'0 0.0
2017-Oct-10 09:30N 38°59' W 076°29'0 0.0
2017-Oct-10 09:00N 38°59' W 076°29'0 0.0
2017-Oct-10 08:30N 38°59' W 076°29'2 4.5
2017-Oct-10 08:00N 38°58' W 076°27'3 6.8
2017-Oct-10 07:30N 38°59' W 076°23'4 7.9
2017-Oct-10 07:00N 39°03' W 076°23'4 7.8
2017-Oct-10 06:30N 39°07' W 076°24'4 7.3
2017-Oct-10 06:00N 39°10' W 076°26'3 6.9
2017-Oct-10 05:31N 39°12' W 076°30'3 6.4
2017-Oct-10 05:00N 39°13' W 076°34'1 2.0
2017-Oct-10 04:30N 39°13' W 076°35'0 0.0
2017-Oct-10 04:00N 39°13' W 076°35'0 0.0
2017-Oct-10 03:30N 39°13' W 076°35'0 0.0
2017-Oct-10 02:59N 39°13' W 076°35'0 0.0
2017-Oct-10 02:29N 39°13' W 076°35'0 0.0
2017-Oct-10 02:00N 39°13' W 076°35'0 0.0
2017-Oct-10 01:29N 39°13' W 076°35'0 0.0
2017-Oct-10 01:00N 39°13' W 076°35'0 0.0
2017-Oct-10 00:30N 39°13' W 076°35'0 0.0
2017-Oct-09 23:59N 39°13' W 076°35'0 0.0
2017-Oct-09 23:29N 39°13' W 076°35'0 0.0
2017-Oct-09 23:00N 39°13' W 076°35'0 0.0
2017-Oct-09 22:29N 39°13' W 076°35'0 0.0
2017-Oct-09 21:58N 39°13' W 076°35'0 0.0
2017-Oct-09 21:29N 39°13' W 076°35'0 0.0
2017-Oct-09 21:00N 39°13' W 076°35'0 0.0
2017-Oct-09 20:30N 39°13' W 076°35'0 0.0
2017-Oct-09 20:00N 39°13' W 076°35'0 0.0
2017-Oct-09 19:30N 39°13' W 076°35'0 0.0
2017-Oct-09 19:00N 39°13' W 076°35'0 0.0
2017-Oct-09 18:19N 39°13' W 076°35'0 0.1
2017-Oct-09 16:58N 39°13' W 076°35'0 0.1
2017-Oct-09 15:19N 39°13' W 076°35'0 0.8
2017-Oct-09 14:58N 39°13' W 076°35'0 0.4
2017-Oct-09 14:29N 39°13' W 076°35'0 0.0
2017-Oct-09 13:56N 39°13' W 076°35'0 0.5
2017-Oct-09 13:29N 39°13' W 076°35'0 0.1
2017-Oct-09 13:00N 39°13' W 076°34'0 0.1
2017-Oct-09 12:30N 39°13' W 076°35'0 0.6
2017-Oct-09 12:00N 39°13' W 076°35'0 0.0
2017-Oct-09 09:42N 39°13' W 076°35'0 0.0
2017-Oct-09 09:30N 39°13' W 076°35'0 0.0
2017-Oct-09 09:00N 39°13' W 076°35'0 0.0
2017-Oct-09 08:29N 39°13' W 076°35'0 0.0
2017-Oct-09 08:00N 39°13' W 076°35'0 0.0
2017-Oct-09 07:29N 39°13' W 076°35'0 0.0
2017-Oct-09 06:59N 39°13' W 076°35'0 0.0
2017-Oct-09 06:30N 39°13' W 076°35'0 0.0
2017-Oct-09 05:43N 39°13' W 076°35'0 0.0
2017-Oct-09 05:15N 39°13' W 076°35'  

Dump ship's entire track history